Weather observations for the past three days for
Bay Bridge Field
Metric (Imperial)
Date Time (edt) Wind (kph) Vis. (km) Weather Sky Cond. Temperature (ºC) Relative Humidity Wind Chill (°C) Heat Index (°C) Pressure Precipitation (cm)
Air Dwpt 6 hour altimeter (cm) sea level (mb) 1 hr 3 hr 6 hr
Max. Min.
05 17:55 S 24 G 35 16.09 Fair CLR 0 0 0% 75.74 0.0
05 17:35 S 20 G 35 16.09 Fair CLR 0 0 0% 75.74 0.0
05 17:15 S 20 G 37 16.09 Fair CLR 0 0 0% 75.74 0.0
05 16:55 S 19 G 35 16.09 Fair CLR 0 0 0% 75.72 0.0
05 16:35 S 24 G 43 16.09 Fair CLR 0 0 0% 75.72 0.0
05 16:15 S 24 G 39 16.09 Fair CLR 0 0 0% 75.74 0.0
05 15:55 S 28 G 41 16.09 Fair CLR 0 0 0% 75.74 0.0
05 15:35 S 33 G 41 16.09 Fair and Breezy CLR 0 0 0% 75.77 0.0
05 15:15 S 24 G 44 16.09 Fair CLR 0 0 0% 75.79 0.0
05 14:55 S 31 G 43 16.09 Fair CLR 0 0 0% 75.82 0.0
05 14:35 S 28 G 37 16.09 Fair CLR 0 0 0% 75.84 0.0
05 14:15 S 24 G 33 16.09 Fair CLR 0 0 0% 75.84 0.0
05 13:55 S 22 G 39 11.27 Fair with Haze CLR 0 0 0% 75.87 0.0
05 13:35 S 24 G 39 16.09 Fair CLR 0 0 0% 75.87 0.0
05 12:55 S 26 G 37 16.09 Fair CLR 0 0 0% 75.92 0.0
05 12:35 S 19 G 33 16.09 Fair CLR 0 0 0% 75.95 0.0
05 12:10 S 24 G 30 16.09 Fair CLR 0 0 0% 75.95 0.0
05 11:55 S 19 G 26 16.09 Fair CLR 0 0 0% 75.95 0.0
05 11:35 S 17 16.09 Fair CLR 0 0 0% 75.97 0.0
05 11:15 S 20 16.09 Fair CLR 0 0 0% 75.97 0.0
05 10:55 SE 26 16.09 Fair CLR 0 0 0% 75.97 0.0
05 10:35 S 13 16.09 Fair CLR 0 0 0% 75.95 0.0
05 10:15 S 11 16.09 Fair CLR 0 0 0% 75.97 0.0
05 09:55 S 15 16.09 Fair CLR 0 0 0% 75.97 0.0
05 09:35 SW 17 16.09 Fair CLR 0 0 0% 75.97 0.0
05 09:15 SW 17 16.09 Fair CLR 0 0 0% 75.97 0.0
05 08:35 SW 22 G 31 16.09 Fair CLR 0 0 0% 75.97 0.0
05 08:15 SW 20 16.09 Fair CLR 0 0 0% 75.95 0.0
05 07:55 SW 15 16.09 Fair CLR 0 0 0% 75.95 0.0
05 07:15 SW 11 16.09 Partly Cloudy SCT110 0 0 0% 75.95 0.0
05 06:55 SW 11 16.09 Mostly Cloudy BKN100 0 0 0% 75.92 0.0
05 06:35 SW 9 16.09 Mostly Cloudy BKN100 0 0 0% 75.92 0.0
05 06:15 SW 7 16.09 Fair CLR 0 0 0% 75.9 0.0
05 05:55 S 7 16.09 Fair CLR 0 0 0% 75.9 0.0
05 05:35 SW 9 16.09 Fair CLR 0 0 0% 75.9 0.0
05 05:15 SW 11 16.09 Fair CLR 0 0 0% 75.87 0.0
05 04:55 S 15 16.09 Fair CLR 0 0 0% 75.87 0.0
05 04:35 SW 13 16.09 Fair CLR 0 0 0% 75.87 0.0
05 04:15 SW 17 16.09 Fair CLR 0 0 0% 75.87 0.0
05 03:55 S 15 16.09 Fair CLR 0 0 0% 75.84 0.0
05 03:35 S 15 16.09 Fair CLR 0 0 0% 75.87 0.0
05 03:15 S 20 G 31 16.09 Fair CLR 0 0 0% 75.84 0.0
05 02:55 S 15 16.09 Fair CLR 0 0 0% 75.87 0.0
05 02:35 S 17 16.09 Fair CLR 0 0 0% 75.87 0.0
05 02:15 S 13 16.09 Fair CLR 0 0 0% 75.84 0.0
05 01:55 S 19 G 30 16.09 Fair CLR 0 0 0% 75.87 0.0
05 01:35 S 15 16.09 Fair CLR 0 0 0% 75.87 0.0
05 01:15 S 13 16.09 Fair CLR 0 0 0% 75.87 0.0
05 00:55 S 15 16.09 Partly Cloudy SCT110 0 0 0% 75.87 0.0
05 00:35 S 13 16.09 Partly Cloudy SCT110 0 0 0% 75.87 0.0
05 00:15 S 15 16.09 Fair CLR 0 0 0% 75.87 0.0
04 23:50 S 15 16.09 Fair CLR 0 0 0% 75.84 0.0
04 23:35 S 11 16.09 Fair CLR 0 0 0% 75.84 0.0
04 23:15 S 13 16.09 Fair CLR 0 0 0% 75.84 0.0
04 22:55 S 13 16.09 Fair CLR 0 0 0% 75.84 0.0
04 22:35 S 13 16.09 Fair CLR 0 0 0% 75.84 0.0
04 22:15 S 15 G 31 16.09 Fair CLR 0 0 0% 75.84 0.0
04 21:55 S 19 G 30 16.09 Fair CLR 0 0 0% 75.84 0.0
04 21:35 S 19 G 28 16.09 Fair CLR 0 0 0% 75.84 0.0
04 21:15 S 15 16.09 Partly Cloudy SCT110 0 0 0% 75.82 0.0
04 20:55 S 13 16.09 Partly Cloudy SCT110 0 0 0% 75.79 0.0
04 20:35 S 17 16.09 Fair CLR 0 0 0% 75.79 0.0
04 20:15 S 19 16.09 Fair CLR 0 0 0% 75.79 0.0
04 19:55 S 19 16.09 Fair CLR 0 0 0% 75.79 0.0
04 19:35 S 15 16.09 Fair CLR 0 0 0% 75.79 0.0
04 19:15 S 20 G 28 16.09 Fair CLR 0 0 0% 75.79 0.0
04 18:55 S 22 16.09 Fair CLR 0 0 0% 75.79 0.0
04 18:35 S 24 G 30 16.09 Fair CLR 0 0 0% 75.79 0.0
04 18:15 S 24 G 31 16.09 Fair CLR 0 0 0% 75.79 0.0
04 17:55 S 24 G 31 16.09 Fair CLR 0 0 0% 75.79 0.0
04 17:35 S 17 16.09 Fair CLR 0 0 0% 75.79 0.0
04 17:15 S 22 16.09 Fair CLR 0 0 0% 75.79 0.0
04 16:55 S 19 G 28 16.09 Fair CLR 0 0 0% 75.79 0.0
04 16:35 S 17 G 37 16.09 Fair CLR 0 0 0% 75.82 0.0
04 16:15 S 20 16.09 Fair CLR 0 0 0% 75.84 0.0
04 15:55 SE 22 G 31 16.09 Fair CLR 0 0 0% 75.84 0.0
04 15:35 SE 22 G 28 16.09 Fair CLR 0 0 0% 75.87 0.0
04 15:15 SE 24 16.09 Fair CLR 0 0 0% 75.9 0.0
04 14:55 SE 22 G 31 16.09 Fair CLR 0 0 0% 75.92 0.0
04 14:35 S 20 G 26 16.09 Fair CLR 0 0 0% 75.95 0.0
04 14:15 SE 22 16.09 Fair CLR 0 0 0% 75.95 0.0
04 13:55 SE 22 16.09 Fair CLR 0 0 0% 75.97 0.0
04 13:35 S 20 16.09 Fair CLR 0 0 0% 76 0.0
04 13:15 SE 19 16.09 Fair CLR 0 0 0% 76 0.0
04 12:55 S 13 16.09 Fair CLR 0 0 0% 76.02 0.0
04 12:35 S 15 16.09 Fair CLR 0 0 0% 76.05 0.0
04 12:15 SE 15 16.09 Fair CLR 0 0 0% 76.07 0.0
04 11:55 S 13 16.09 Fair CLR 0 0 0% 76.07 0.0
04 11:35 S 15 16.09 Fair CLR 0 0 0% 76.07 0.0
04 11:15 SW 11 16.09 Fair CLR 0 0 0% 76.1 0.0
04 10:55 S 13 16.09 Fair CLR 0 0 0% 76.12 0.0
04 10:35 S 13 16.09 Fair CLR 0 0 0% 76.12 0.0
04 10:10 SW 11 16.09 Fair CLR 0 0 0% 76.12 0.0
04 09:55 S 13 16.09 Fair CLR 0 0 0% 76.12 0.0
04 09:35 S 13 16.09 Fair CLR 0 0 0% 76.12 0.0
04 09:15 SW 17 16.09 Fair CLR 0 0 0% 76.15 0.0
04 08:55 S 11 16.09 Partly Cloudy SCT100 0 0 0% 76.15 0.0
04 08:35 SW 15 16.09 Partly Cloudy SCT100 0 0 0% 76.17 0.0
04 08:15 SW 17 16.09 Fair CLR 0 0 0% 76.17 0.0
04 07:55 SW 17 G 31 16.09 Fair CLR 0 0 0% 76.17 0.0
04 07:35 SW 11 16.09 Fair CLR 0 0 0% 76.2 0.0
04 07:15 S 13 16.09 Partly Cloudy SCT100 0 0 0% 76.2 0.0
04 06:55 S 11 16.09 Overcast OVC100 0 0 0% 76.2 0.0
04 06:35 S 17 16.09 Overcast OVC100 0 0 0% 76.17 0.0
04 06:15 S 11 16.09 Overcast OVC110 0 0 0% 76.17 0.0
04 05:55 S 20 G 30 16.09 Overcast OVC120 0 0 0% 76.17 0.0
04 05:35 S 19 16.09 Overcast OVC120 0 0 0% 76.2 0.0
04 05:15 S 13 16.09 Overcast OVC120 0 0 0% 76.2 0.0
04 04:55 S 11 16.09 Partly Cloudy SCT100 SCT120 0 0 0% 76.2 0.0
04 04:35 S 11 16.09 Partly Cloudy SCT110 0 0 0% 76.2 0.0
04 04:15 S 15 16.09 Fair CLR 0 0 0% 76.2 0.0
04 03:55 S 13 16.09 Fair CLR 0 0 0% 76.2 0.0
04 03:35 S 13 16.09 Fair CLR 0 0 0% 76.2 0.0
04 03:15 S 15 16.09 Fair CLR 0 0 0% 76.2 0.0
04 02:55 S 11 16.09 Fair CLR 0 0 0% 76.23 0.0
04 02:35 S 17 16.09 Fair CLR 0 0 0% 76.23 0.0
04 01:55 S 11 16.09 Fair CLR 0 0 0% 76.23 0.0
04 01:15 SW 9 16.09 Fair CLR 0 0 0% 76.2 0.0
04 00:55 S 7 16.09 Fair CLR 0 0 0% 76.2 0.0
04 00:35 S 6 16.09 Fair CLR 0 0 0% 76.23 0.0
04 00:15 SW 7 16.09 Fair CLR 0 0 0% 76.2 0.0
03 23:55 SW 11 16.09 Fair CLR 0 0 0% 76.2 0.0
03 23:35 SW 7 16.09 Fair CLR 0 0 0% 76.2 0.0
03 23:15 S 7 16.09 Fair CLR 0 0 0% 76.17 0.0
03 22:55 S 7 16.09 Fair CLR 0 0 0% 76.17 0.0
03 22:35 S 7 16.09 Fair CLR 0 0 0% 76.17 0.0
03 22:15 S 6 16.09 Fair CLR 0 0 0% 76.17 0.0
03 21:55 S 7 16.09 Fair CLR 0 0 0% 76.17 0.0
03 21:35 Calm 16.09 Fair CLR 0 0 0% 76.15 0.0
03 21:15 S 7 16.09 Fair CLR 0 0 0% 76.15 0.0
03 20:55 S 6 16.09 Fair CLR 0 0 0% 76.15 0.0
03 20:35 SW 6 16.09 Fair CLR 0 0 0% 76.12 0.0
03 20:15 Calm 16.09 Fair CLR 0 0 0% 76.1 0.0
03 19:55 W 11 16.09 Fair CLR 0 0 0% 76.1 0.0
03 19:35 W 13 16.09 Fair CLR 0 0 0% 76.07 0.0
03 19:15 W 13 16.09 Fair CLR 0 0 0% 76.07 0.0
03 18:55 W 13 16.09 Fair CLR 0 0 0% 76.07 0.0
03 18:35 W 11 16.09 Fair CLR 0 0 0% 76.07 0.0
03 18:15 W 15 16.09 Fair CLR 0 0 0% 76.07 0.0
03 17:55 W 11 16.09 Fair CLR 0 0 0% 76.1 0.0
03 17:35 W 13 16.09 Fair CLR 0 0 0% 76.07 0.0
03 17:15 W 13 16.09 Partly Cloudy SCT080 0 0 0% 76.07 0.0
03 16:55 W 11 G 31 16.09 Partly Cloudy SCT080 0 0 0% 76.1 0.0
03 16:35 NW 19 16.09 Partly Cloudy SCT080 0 0 0% 76.1 0.0
03 16:15 W 13 G 28 16.09 Fair CLR 0 0 0% 76.12 0.0
03 15:55 NW 20 G 30 16.09 Fair CLR 0 0 0% 76.15 0.0
03 15:35 NW 17 G 30 16.09 Partly Cloudy SCT070 0 0 0% 76.15 0.0
03 15:15 NW 17 G 28 16.09 Partly Cloudy SCT070 0 0 0% 76.17 0.0
03 14:55 NW 20 G 28 16.09 Partly Cloudy SCT070 0 0 0% 76.17 0.0
03 14:35 NW 17 16.09 Fair CLR 0 0 0% 76.2 0.0
03 14:15 NW 20 G 31 16.09 Partly Cloudy SCT070 0 0 0% 76.2 0.0
03 13:55 NW 19 G 26 16.09 Partly Cloudy SCT070 0 0 0% 76.23 0.0
03 13:35 NW 13 16.09 Partly Cloudy SCT070 0 0 0% 76.23 0.0
03 13:15 NW 17 G 30 16.09 Fair CLR 0 0 0% 76.23 0.0
03 12:55 NW 13 16.09 Fair CLR 0 0 0% 76.25 0.0
03 12:35 N 13 G 31 16.09 Partly Cloudy SCT070 0 0 0% 76.25 0.0
03 12:15 NW 13 16.09 Partly Cloudy SCT070 0 0 0% 76.25 0.0
03 11:55 N 17 16.09 Fair CLR 0 0 0% 76.28 0.0
03 11:35 N 17 G 28 16.09 Fair CLR 0 0 0% 76.28 0.0
03 11:15 NW 19 16.09 Partly Cloudy SCT060 0 0 0% 76.28 0.0
03 10:55 N 19 G 33 16.09 Partly Cloudy SCT060 0 0 0% 76.28 0.0
03 10:35 NW 19 G 33 16.09 Fair CLR 0 0 0% 76.28 0.0
03 10:15 NW 20 G 28 16.09 Fair CLR 0 0 0% 76.28 0.0
03 09:55 NW 20 G 37 16.09 Fair CLR 0 0 0% 76.28 0.0
03 09:35 NW 20 G 37 16.09 Fair CLR 0 0 0% 76.28 0.0
03 09:15 NW 24 G 39 16.09 Fair CLR 0 0 0% 76.28 0.0
03 08:55 NW 22 G 41 16.09 Fair CLR 0 0 0% 76.28 0.0
03 08:35 NW 24 G 39 16.09 Fair CLR 0 0 0% 76.25 0.0
03 08:15 NW 22 G 31 16.09 Fair CLR 0 0 0% 76.25 0.0
03 07:55 NW 30 G 43 16.09 Fair CLR 0 0 0% 76.23 0.0
03 07:35 NW 20 G 39 16.09 Fair CLR 0 0 0% 76.2 0.0
03 07:15 NW 20 G 35 16.09 Fair CLR 0 0 0% 76.2 0.0
03 06:55 NW 26 G 39 16.09 Fair CLR 0 0 0% 76.17 0.0
03 06:35 NW 24 G 41 16.09 Fair CLR 0 0 0% 76.15 0.0
03 06:15 NW 22 G 33 16.09 Fair CLR 0 0 0% 76.12 0.0
03 05:55 NW 26 G 41 16.09 Fair CLR 0 0 0% 76.1 0.0
03 05:35 NW 20 G 35 16.09 Fair CLR 0 0 0% 76.1 0.0
03 05:15 NW 20 G 33 16.09 Fair CLR 0 0 0% 76.07 0.0
03 04:55 NW 20 G 26 16.09 Fair CLR 0 0 0% 76.07 0.0
03 04:35 NW 19 G 31 16.09 Fair CLR 0 0 0% 76.05 0.0
03 04:15 W 15 16.09 Fair CLR 0 0 0% 76.05 0.0
03 03:55 NW 19 G 30 16.09 Fair CLR 0 0 0% 76.05 0.0
03 03:35 NW 19 16.09 Fair CLR 0 0 0% 76.02 0.0
03 03:15 NW 17 16.09 Fair CLR 0 0 0% 76 0.0
03 02:55 NW 19 16.09 Fair CLR 0 0 0% 76 0.0
03 02:35 NW 17 16.09 Fair CLR 0 0 0% 76 0.0
03 02:15 NW 19 G 31 16.09 Fair CLR 0 0 0% 76 0.0
03 01:55 NW 19 G 31 16.09 Fair CLR 0 0 0% 76 0.0
03 01:35 NW 17 16.09 Fair CLR 0 0 0% 76 0.0
03 01:15 NW 19 G 31 16.09 Fair CLR 0 0 0% 76 0.0
03 00:55 NW 19 G 30 16.09 Fair CLR 0 0 0% 76.02 0.0
03 00:35 NW 19 G 30 16.09 Fair CLR 0 0 0% 76.02 0.0
03 00:15 NW 22 G 31 16.09 Fair CLR 0 0 0% 76.02 0.0
02 23:55 N 22 G 31 16.09 Fair CLR 0 0 0% 76.02 0.0
02 23:35 N 22 G 31 16.09 Fair CLR 0 0 0% 76 0.0
02 23:15 NW 26 G 33 16.09 Fair CLR 0 0 0% 76 0.0
02 22:55 N 15 G 31 16.09 Fair CLR 0 0 0% 75.97 0.0
02 22:35 N 17 G 26 16.09 Fair CLR 0 0 0% 75.97 0.0
02 22:15 N 15 G 26 16.09 Partly Cloudy SCT090 0 0 0% 76 0.0
02 21:55 N 13 16.09 Partly Cloudy SCT090 0 0 0% 76 0.0
02 21:35 N 17 16.09 Mostly Cloudy BKN080 0 0 0% 76 0.0
02 21:15 N 15 G 28 16.09 Overcast OVC080 0 0 0% 76 0.0
02 20:55 N 15 16.09 Mostly Cloudy BKN080 0 0 0% 75.97 0.0
02 20:35 N 26 G 33 16.09 Mostly Cloudy BKN080 0 0 0% 75.95 0.0
02 20:15 NW 17 16.09 Mostly Cloudy SCT065 BKN080 0 0 0% 75.92 0.0
02 19:55 N 15 16.09 Mostly Cloudy BKN080 0 0 0% 75.9 0.0
02 19:35 NW 13 16.09 Mostly Cloudy BKN080 0 0 0% 75.9 0.0
02 19:15 N 6 16.09 Overcast OVC080 0 0 0% 75.9 0.0
02 18:55 NE 6 16.09 Overcast OVC080 0 0 0% 75.87 0.0
02 18:35 N 7 16.09 Overcast OVC080 0 0 0% 75.87 0.0
02 18:15 N 7 16.09 Overcast OVC080 0 0 0% 75.9 0.0
Date Time (edt) Wind (kph) Vis. (km) Weather Sky Cond. Air Dwpt Max. Min. Relative Humidity Wind Chill (°C) Heat Index (°C) altimeter (cm) sea level (mb) 1 hr 3 hr 6 hr
6 hour
Temperature (ºC) Pressure Precipitation (cm)